sensor_id;sensor_type;location;lat;lon;timestamp;P1;durP1;ratioP1;P2;durP2;ratioP2
2570;SDS011;1295;51.130;6.732;2023-05-07T00:01:53;62.83;;;31.90;;
2570;SDS011;1295;51.130;6.732;2023-05-07T00:04:20;59.90;;;22.67;;
2570;SDS011;1295;51.130;6.732;2023-05-07T00:06:46;62.83;;;22.07;;
2570;SDS011;1295;51.130;6.732;2023-05-07T00:09:11;57.60;;;21.07;;
2570;SDS011;1295;51.130;6.732;2023-05-07T00:11:37;60.80;;;24.33;;
2570;SDS011;1295;51.130;6.732;2023-05-07T00:14:03;60.70;;;22.80;;
2570;SDS011;1295;51.130;6.732;2023-05-07T00:16:29;59.40;;;21.07;;
2570;SDS011;1295;51.130;6.732;2023-05-07T00:18:55;60.20;;;23.60;;
2570;SDS011;1295;51.130;6.732;2023-05-07T00:21:21;62.17;;;21.33;;
2570;SDS011;1295;51.130;6.732;2023-05-07T00:23:47;60.33;;;21.73;;
2570;SDS011;1295;51.130;6.732;2023-05-07T00:26:13;59.23;;;19.00;;
2570;SDS011;1295;51.130;6.732;2023-05-07T00:28:39;57.60;;;19.80;;
2570;SDS011;1295;51.130;6.732;2023-05-07T00:31:05;63.40;;;18.30;;
2570;SDS011;1295;51.130;6.732;2023-05-07T00:33:31;60.13;;;18.10;;
2570;SDS011;1295;51.130;6.732;2023-05-07T00:35:57;58.90;;;19.90;;
2570;SDS011;1295;51.130;6.732;2023-05-07T00:38:24;58.90;;;19.80;;
2570;SDS011;1295;51.130;6.732;2023-05-07T00:40:49;57.30;;;19.73;;
2570;SDS011;1295;51.130;6.732;2023-05-07T00:43:16;69.03;;;27.30;;
2570;SDS011;1295;51.130;6.732;2023-05-07T00:45:42;60.27;;;23.73;;
2570;SDS011;1295;51.130;6.732;2023-05-07T00:48:07;64.50;;;29.93;;
2570;SDS011;1295;51.130;6.732;2023-05-07T00:50:33;61.47;;;29.63;;
2570;SDS011;1295;51.130;6.732;2023-05-07T00:52:59;64.47;;;33.47;;
2570;SDS011;1295;51.130;6.732;2023-05-07T00:55:26;64.60;;;31.87;;
2570;SDS011;1295;51.130;6.732;2023-05-07T00:57:51;64.00;;;29.73;;
2570;SDS011;1295;51.130;6.732;2023-05-07T01:00:17;62.50;;;28.63;;
2570;SDS011;1295;51.130;6.732;2023-05-07T01:02:43;64.43;;;29.10;;
2570;SDS011;1295;51.130;6.732;2023-05-07T01:05:10;62.63;;;25.93;;
2570;SDS011;1295;51.130;6.732;2023-05-07T01:07:37;62.73;;;23.97;;
2570;SDS011;1295;51.130;6.732;2023-05-07T01:10:03;60.37;;;23.90;;
2570;SDS011;1295;51.130;6.732;2023-05-07T01:12:28;61.53;;;20.23;;
2570;SDS011;1295;51.130;6.732;2023-05-07T01:14:54;60.90;;;17.67;;
2570;SDS011;1295;51.130;6.732;2023-05-07T01:17:20;61.00;;;21.57;;
2570;SDS011;1295;51.130;6.732;2023-05-07T01:19:45;61.60;;;26.33;;
2570;SDS011;1295;51.130;6.732;2023-05-07T01:22:12;62.43;;;24.73;;
2570;SDS011;1295;51.130;6.732;2023-05-07T01:24:38;62.60;;;25.20;;
2570;SDS011;1295;51.130;6.732;2023-05-07T01:27:03;63.30;;;31.60;;
2570;SDS011;1295;51.130;6.732;2023-05-07T01:29:36;63.90;;;32.30;;
2570;SDS011;1295;51.130;6.732;2023-05-07T01:32:02;63.43;;;29.90;;
2570;SDS011;1295;51.130;6.732;2023-05-07T01:34:28;60.67;;;25.67;;
2570;SDS011;1295;51.130;6.732;2023-05-07T01:36:59;62.40;;;27.97;;
2570;SDS011;1295;51.130;6.732;2023-05-07T01:39:25;62.40;;;29.63;;
2570;SDS011;1295;51.130;6.732;2023-05-07T01:41:51;65.97;;;26.20;;
2570;SDS011;1295;51.130;6.732;2023-05-07T01:44:16;61.40;;;25.70;;
2570;SDS011;1295;51.130;6.732;2023-05-07T01:46:42;62.80;;;28.13;;
2570;SDS011;1295;51.130;6.732;2023-05-07T01:49:08;60.70;;;25.37;;
2570;SDS011;1295;51.130;6.732;2023-05-07T01:51:33;63.83;;;23.87;;
2570;SDS011;1295;51.130;6.732;2023-05-07T01:54:00;58.90;;;20.27;;
2570;SDS011;1295;51.130;6.732;2023-05-07T01:56:27;60.63;;;22.57;;
2570;SDS011;1295;51.130;6.732;2023-05-07T01:58:52;61.57;;;27.50;;
2570;SDS011;1295;51.130;6.732;2023-05-07T02:01:18;62.97;;;28.87;;
2570;SDS011;1295;51.130;6.732;2023-05-07T02:03:44;67.47;;;30.70;;
2570;SDS011;1295;51.130;6.732;2023-05-07T02:06:10;63.20;;;31.77;;
2570;SDS011;1295;51.130;6.732;2023-05-07T02:08:35;63.30;;;23.87;;
2570;SDS011;1295;51.130;6.732;2023-05-07T02:11:01;63.33;;;28.37;;
2570;SDS011;1295;51.130;6.732;2023-05-07T02:13:29;59.03;;;22.10;;
2570;SDS011;1295;51.130;6.732;2023-05-07T02:15:59;64.60;;;21.47;;
2570;SDS011;1295;51.130;6.732;2023-05-07T02:18:25;61.00;;;21.47;;
2570;SDS011;1295;51.130;6.732;2023-05-07T02:20:51;59.73;;;20.77;;
2570;SDS011;1295;51.130;6.732;2023-05-07T02:23:17;60.87;;;25.40;;
2570;SDS011;1295;51.130;6.732;2023-05-07T02:25:43;62.03;;;22.07;;
2570;SDS011;1295;51.130;6.732;2023-05-07T02:28:08;61.70;;;28.63;;
2570;SDS011;1295;51.130;6.732;2023-05-07T02:30:35;59.20;;;19.13;;
2570;SDS011;1295;51.130;6.732;2023-05-07T02:33:00;61.53;;;16.70;;
2570;SDS011;1295;51.130;6.732;2023-05-07T02:35:26;58.17;;;18.00;;
2570;SDS011;1295;51.130;6.732;2023-05-07T02:37:52;61.57;;;27.90;;
2570;SDS011;1295;51.130;6.732;2023-05-07T02:40:18;58.23;;;15.17;;
2570;SDS011;1295;51.130;6.732;2023-05-07T02:42:44;58.10;;;17.20;;
2570;SDS011;1295;51.130;6.732;2023-05-07T02:45:10;57.20;;;14.43;;
2570;SDS011;1295;51.130;6.732;2023-05-07T02:47:36;57.53;;;13.97;;
2570;SDS011;1295;51.130;6.732;2023-05-07T02:50:03;56.83;;;11.07;;
2570;SDS011;1295;51.130;6.732;2023-05-07T02:52:29;60.90;;;11.37;;
2570;SDS011;1295;51.130;6.732;2023-05-07T02:54:55;60.10;;;9.50;;
2570;SDS011;1295;51.130;6.732;2023-05-07T02:57:20;57.30;;;8.50;;
2570;SDS011;1295;51.130;6.732;2023-05-07T02:59:47;55.00;;;10.90;;
2570;SDS011;1295;51.130;6.732;2023-05-07T03:02:13;56.97;;;14.20;;
2570;SDS011;1295;51.130;6.732;2023-05-07T03:04:39;58.93;;;15.57;;
2570;SDS011;1295;51.130;6.732;2023-05-07T03:07:04;58.47;;;17.37;;
2570;SDS011;1295;51.130;6.732;2023-05-07T03:09:31;58.97;;;16.13;;
2570;SDS011;1295;51.130;6.732;2023-05-07T03:11:56;57.53;;;14.90;;
2570;SDS011;1295;51.130;6.732;2023-05-07T03:14:22;57.67;;;15.03;;
2570;SDS011;1295;51.130;6.732;2023-05-07T03:16:48;68.00;;;13.60;;
2570;SDS011;1295;51.130;6.732;2023-05-07T03:19:14;59.47;;;11.60;;
2570;SDS011;1295;51.130;6.732;2023-05-07T03:21:39;58.93;;;10.83;;
2570;SDS011;1295;51.130;6.732;2023-05-07T03:24:12;58.80;;;9.83;;
2570;SDS011;1295;51.130;6.732;2023-05-07T03:26:38;56.57;;;9.43;;
2570;SDS011;1295;51.130;6.732;2023-05-07T03:29:05;57.97;;;8.90;;
2570;SDS011;1295;51.130;6.732;2023-05-07T03:31:31;57.43;;;10.07;;
2570;SDS011;1295;51.130;6.732;2023-05-07T03:33:57;57.70;;;10.73;;
2570;SDS011;1295;51.130;6.732;2023-05-07T03:36:23;59.30;;;12.23;;
2570;SDS011;1295;51.130;6.732;2023-05-07T03:38:49;57.80;;;11.80;;
2570;SDS011;1295;51.130;6.732;2023-05-07T03:41:14;60.10;;;11.23;;
2570;SDS011;1295;51.130;6.732;2023-05-07T03:43:40;59.83;;;12.57;;
2570;SDS011;1295;51.130;6.732;2023-05-07T03:46:06;57.90;;;10.77;;
2570;SDS011;1295;51.130;6.732;2023-05-07T03:48:31;58.47;;;10.27;;
2570;SDS011;1295;51.130;6.732;2023-05-07T03:50:57;57.60;;;11.40;;
2570;SDS011;1295;51.130;6.732;2023-05-07T03:53:24;58.33;;;11.20;;
2570;SDS011;1295;51.130;6.732;2023-05-07T03:55:49;57.20;;;10.33;;
2570;SDS011;1295;51.130;6.732;2023-05-07T03:58:15;55.77;;;7.93;;
2570;SDS011;1295;51.130;6.732;2023-05-07T04:00:41;55.30;;;7.73;;
2570;SDS011;1295;51.130;6.732;2023-05-07T04:03:07;63.63;;;9.23;;
2570;SDS011;1295;51.130;6.732;2023-05-07T04:05:32;56.87;;;8.80;;
2570;SDS011;1295;51.130;6.732;2023-05-07T04:07:58;57.03;;;9.00;;
2570;SDS011;1295;51.130;6.732;2023-05-07T04:10:24;56.77;;;7.40;;
2570;SDS011;1295;51.130;6.732;2023-05-07T04:12:50;55.87;;;7.43;;
2570;SDS011;1295;51.130;6.732;2023-05-07T04:15:16;55.57;;;7.70;;
2570;SDS011;1295;51.130;6.732;2023-05-07T04:17:42;57.37;;;8.40;;
2570;SDS011;1295;51.130;6.732;2023-05-07T04:20:09;57.13;;;7.73;;
2570;SDS011;1295;51.130;6.732;2023-05-07T04:22:38;56.10;;;7.40;;
2570;SDS011;1295;51.130;6.732;2023-05-07T04:25:04;62.47;;;8.90;;
2570;SDS011;1295;51.130;6.732;2023-05-07T04:27:31;57.40;;;8.23;;
2570;SDS011;1295;51.130;6.732;2023-05-07T04:29:57;55.73;;;7.33;;
2570;SDS011;1295;51.130;6.732;2023-05-07T04:32:23;58.87;;;7.60;;
2570;SDS011;1295;51.130;6.732;2023-05-07T04:34:56;58.87;;;9.30;;
2570;SDS011;1295;51.130;6.732;2023-05-07T04:37:21;54.87;;;7.73;;
2570;SDS011;1295;51.130;6.732;2023-05-07T04:39:47;60.73;;;8.87;;
2570;SDS011;1295;51.130;6.732;2023-05-07T04:42:15;57.67;;;8.80;;
2570;SDS011;1295;51.130;6.732;2023-05-07T04:44:40;60.93;;;10.40;;
2570;SDS011;1295;51.130;6.732;2023-05-07T04:47:06;59.13;;;12.93;;
2570;SDS011;1295;51.130;6.732;2023-05-07T04:49:32;58.40;;;11.80;;
2570;SDS011;1295;51.130;6.732;2023-05-07T04:51:59;58.80;;;9.57;;
2570;SDS011;1295;51.130;6.732;2023-05-07T04:54:35;57.63;;;9.90;;
2570;SDS011;1295;51.130;6.732;2023-05-07T04:57:00;55.80;;;8.17;;
2570;SDS011;1295;51.130;6.732;2023-05-07T04:59:26;58.50;;;8.97;;
2570;SDS011;1295;51.130;6.732;2023-05-07T05:01:52;56.70;;;9.30;;
2570;SDS011;1295;51.130;6.732;2023-05-07T05:04:18;58.80;;;9.87;;
2570;SDS011;1295;51.130;6.732;2023-05-07T05:06:45;57.87;;;9.93;;
2570;SDS011;1295;51.130;6.732;2023-05-07T05:09:10;57.90;;;9.67;;
2570;SDS011;1295;51.130;6.732;2023-05-07T05:11:36;57.27;;;10.30;;
2570;SDS011;1295;51.130;6.732;2023-05-07T05:14:02;56.17;;;9.97;;
2570;SDS011;1295;51.130;6.732;2023-05-07T05:16:28;55.40;;;10.80;;
2570;SDS011;1295;51.130;6.732;2023-05-07T05:18:53;58.50;;;18.63;;
2570;SDS011;1295;51.130;6.732;2023-05-07T05:21:19;61.60;;;20.73;;
2570;SDS011;1295;51.130;6.732;2023-05-07T05:23:45;60.60;;;13.93;;
2570;SDS011;1295;51.130;6.732;2023-05-07T05:26:10;60.80;;;14.43;;
2570;SDS011;1295;51.130;6.732;2023-05-07T05:28:36;62.63;;;16.80;;
2570;SDS011;1295;51.130;6.732;2023-05-07T05:31:04;60.20;;;14.93;;
2570;SDS011;1295;51.130;6.732;2023-05-07T05:33:28;57.27;;;13.90;;
2570;SDS011;1295;51.130;6.732;2023-05-07T05:36:10;69.33;;;26.87;;
2570;SDS011;1295;51.130;6.732;2023-05-07T05:38:36;58.43;;;17.83;;
2570;SDS011;1295;51.130;6.732;2023-05-07T05:41:02;70.60;;;30.53;;
2570;SDS011;1295;51.130;6.732;2023-05-07T05:43:27;62.23;;;22.47;;
2570;SDS011;1295;51.130;6.732;2023-05-07T05:45:54;65.30;;;31.03;;
2570;SDS011;1295;51.130;6.732;2023-05-07T05:48:19;66.30;;;17.83;;
2570;SDS011;1295;51.130;6.732;2023-05-07T05:50:45;58.70;;;12.30;;
2570;SDS011;1295;51.130;6.732;2023-05-07T05:53:11;63.70;;;11.77;;
2570;SDS011;1295;51.130;6.732;2023-05-07T05:55:37;58.80;;;15.30;;
2570;SDS011;1295;51.130;6.732;2023-05-07T05:58:03;58.17;;;12.33;;
2570;SDS011;1295;51.130;6.732;2023-05-07T06:00:29;57.03;;;9.40;;
2570;SDS011;1295;51.130;6.732;2023-05-07T06:02:54;56.17;;;7.20;;
2570;SDS011;1295;51.130;6.732;2023-05-07T06:05:20;59.87;;;16.33;;
2570;SDS011;1295;51.130;6.732;2023-05-07T06:07:46;57.77;;;13.13;;
2570;SDS011;1295;51.130;6.732;2023-05-07T06:10:12;56.80;;;14.80;;
2570;SDS011;1295;51.130;6.732;2023-05-07T06:12:38;113.40;;;103.63;;
2570;SDS011;1295;51.130;6.732;2023-05-07T06:15:04;64.63;;;30.13;;
2570;SDS011;1295;51.130;6.732;2023-05-07T06:17:30;55.83;;;9.57;;
2570;SDS011;1295;51.130;6.732;2023-05-07T06:19:56;59.27;;;15.57;;
2570;SDS011;1295;51.130;6.732;2023-05-07T06:22:22;59.80;;;15.43;;
2570;SDS011;1295;51.130;6.732;2023-05-07T06:24:47;55.17;;;7.57;;
2570;SDS011;1295;51.130;6.732;2023-05-07T06:27:14;57.00;;;17.47;;
2570;SDS011;1295;51.130;6.732;2023-05-07T06:29:40;68.20;;;33.80;;
2570;SDS011;1295;51.130;6.732;2023-05-07T06:32:06;65.37;;;29.73;;
2570;SDS011;1295;51.130;6.732;2023-05-07T06:34:31;62.63;;;20.53;;
2570;SDS011;1295;51.130;6.732;2023-05-07T06:36:57;59.83;;;12.63;;
2570;SDS011;1295;51.130;6.732;2023-05-07T06:39:22;55.47;;;9.70;;
2570;SDS011;1295;51.130;6.732;2023-05-07T06:41:48;55.53;;;11.30;;
2570;SDS011;1295;51.130;6.732;2023-05-07T06:44:15;59.80;;;13.70;;
2570;SDS011;1295;51.130;6.732;2023-05-07T06:46:41;58.17;;;11.30;;
2570;SDS011;1295;51.130;6.732;2023-05-07T06:49:06;54.60;;;10.30;;
2570;SDS011;1295;51.130;6.732;2023-05-07T06:51:32;60.30;;;11.23;;
2570;SDS011;1295;51.130;6.732;2023-05-07T06:53:59;60.70;;;14.13;;
2570;SDS011;1295;51.130;6.732;2023-05-07T06:56:29;60.20;;;14.93;;
2570;SDS011;1295;51.130;6.732;2023-05-07T06:58:56;58.37;;;11.40;;
2570;SDS011;1295;51.130;6.732;2023-05-07T07:01:21;57.17;;;9.98;;
2570;SDS011;1295;51.130;6.732;2023-05-07T07:03:47;61.93;;;31.90;;
2570;SDS011;1295;51.130;6.732;2023-05-07T07:06:13;54.60;;;6.00;;
2570;SDS011;1295;51.130;6.732;2023-05-07T07:08:39;59.40;;;19.17;;
2570;SDS011;1295;51.130;6.732;2023-05-07T07:11:06;61.07;;;9.00;;
2570;SDS011;1295;51.130;6.732;2023-05-07T07:13:32;61.30;;;8.93;;
2570;SDS011;1295;51.130;6.732;2023-05-07T07:15:57;61.87;;;14.13;;
2570;SDS011;1295;51.130;6.732;2023-05-07T07:18:23;56.87;;;17.00;;
2570;SDS011;1295;51.130;6.732;2023-05-07T07:20:50;82.70;;;71.60;;
2570;SDS011;1295;51.130;6.732;2023-05-07T07:23:15;138.47;;;127.80;;
2570;SDS011;1295;51.130;6.732;2023-05-07T07:25:42;140.17;;;129.70;;
2570;SDS011;1295;51.130;6.732;2023-05-07T07:28:08;185.13;;;173.43;;
2570;SDS011;1295;51.130;6.732;2023-05-07T07:30:33;180.77;;;168.73;;
2570;SDS011;1295;51.130;6.732;2023-05-07T07:32:59;54.80;;;7.80;;
2570;SDS011;1295;51.130;6.732;2023-05-07T07:35:26;51.80;;;6.17;;
2570;SDS011;1295;51.130;6.732;2023-05-07T07:37:52;52.40;;;6.50;;
2570;SDS011;1295;51.130;6.732;2023-05-07T07:40:17;52.97;;;7.80;;
2570;SDS011;1295;51.130;6.732;2023-05-07T07:42:43;54.10;;;13.50;;
2570;SDS011;1295;51.130;6.732;2023-05-07T07:45:09;53.00;;;7.17;;
2570;SDS011;1295;51.130;6.732;2023-05-07T07:47:35;52.60;;;5.57;;
2570;SDS011;1295;51.130;6.732;2023-05-07T07:50:01;52.90;;;5.37;;
2570;SDS011;1295;51.130;6.732;2023-05-07T07:52:27;51.10;;;5.03;;
2570;SDS011;1295;51.130;6.732;2023-05-07T07:54:53;51.67;;;9.10;;
2570;SDS011;1295;51.130;6.732;2023-05-07T07:57:19;51.90;;;6.20;;
2570;SDS011;1295;51.130;6.732;2023-05-07T07:59:45;55.07;;;15.77;;
2570;SDS011;1295;51.130;6.732;2023-05-07T08:02:10;53.57;;;6.33;;
2570;SDS011;1295;51.130;6.732;2023-05-07T08:04:37;51.37;;;8.10;;
2570;SDS011;1295;51.130;6.732;2023-05-07T08:07:03;52.47;;;8.83;;
2570;SDS011;1295;51.130;6.732;2023-05-07T08:09:28;52.80;;;10.77;;
2570;SDS011;1295;51.130;6.732;2023-05-07T08:12:10;52.00;;;8.80;;
2570;SDS011;1295;51.130;6.732;2023-05-07T08:14:35;52.37;;;6.33;;
2570;SDS011;1295;51.130;6.732;2023-05-07T08:17:01;52.57;;;7.40;;
2570;SDS011;1295;51.130;6.732;2023-05-07T08:19:27;53.00;;;8.30;;
2570;SDS011;1295;51.130;6.732;2023-05-07T08:21:53;52.00;;;6.50;;
2570;SDS011;1295;51.130;6.732;2023-05-07T08:24:18;51.77;;;8.13;;
2570;SDS011;1295;51.130;6.732;2023-05-07T08:26:45;54.57;;;13.60;;
2570;SDS011;1295;51.130;6.732;2023-05-07T08:29:11;53.77;;;10.00;;
2570;SDS011;1295;51.130;6.732;2023-05-07T08:31:37;53.90;;;11.27;;
2570;SDS011;1295;51.130;6.732;2023-05-07T08:34:03;52.97;;;7.13;;
2570;SDS011;1295;51.130;6.732;2023-05-07T08:36:29;51.27;;;7.07;;
2570;SDS011;1295;51.130;6.732;2023-05-07T08:38:59;53.87;;;8.83;;
2570;SDS011;1295;51.130;6.732;2023-05-07T08:41:25;53.37;;;7.00;;
2570;SDS011;1295;51.130;6.732;2023-05-07T08:43:51;56.57;;;12.63;;
2570;SDS011;1295;51.130;6.732;2023-05-07T08:46:19;52.50;;;8.03;;
2570;SDS011;1295;51.130;6.732;2023-05-07T08:48:43;56.60;;;7.87;;
2570;SDS011;1295;51.130;6.732;2023-05-07T08:51:12;51.13;;;6.70;;
2570;SDS011;1295;51.130;6.732;2023-05-07T08:53:35;52.07;;;5.83;;
2570;SDS011;1295;51.130;6.732;2023-05-07T08:56:01;53.87;;;8.37;;
2570;SDS011;1295;51.130;6.732;2023-05-07T08:58:26;53.90;;;8.53;;
2570;SDS011;1295;51.130;6.732;2023-05-07T09:00:52;54.63;;;8.57;;
2570;SDS011;1295;51.130;6.732;2023-05-07T09:03:18;56.50;;;19.00;;
2570;SDS011;1295;51.130;6.732;2023-05-07T09:05:43;53.70;;;11.57;;
2570;SDS011;1295;51.130;6.732;2023-05-07T09:08:09;80.43;;;71.77;;
2570;SDS011;1295;51.130;6.732;2023-05-07T09:10:35;54.70;;;11.07;;
2570;SDS011;1295;51.130;6.732;2023-05-07T09:13:02;61.93;;;32.60;;
2570;SDS011;1295;51.130;6.732;2023-05-07T09:15:28;55.00;;;7.30;;
2570;SDS011;1295;51.130;6.732;2023-05-07T09:17:53;54.63;;;15.23;;
2570;SDS011;1295;51.130;6.732;2023-05-07T09:20:19;53.90;;;13.50;;
2570;SDS011;1295;51.130;6.732;2023-05-07T09:22:44;53.37;;;10.17;;
2570;SDS011;1295;51.130;6.732;2023-05-07T09:25:10;102.33;;;93.07;;
2570;SDS011;1295;51.130;6.732;2023-05-07T09:27:36;53.17;;;7.53;;
2570;SDS011;1295;51.130;6.732;2023-05-07T09:30:03;52.90;;;10.53;;
2570;SDS011;1295;51.130;6.732;2023-05-07T09:32:29;60.13;;;27.17;;
2570;SDS011;1295;51.130;6.732;2023-05-07T09:35:05;81.10;;;72.60;;
2570;SDS011;1295;51.130;6.732;2023-05-07T09:37:32;83.93;;;71.70;;
2570;SDS011;1295;51.130;6.732;2023-05-07T09:39:58;190.37;;;178.23;;
2570;SDS011;1295;51.130;6.732;2023-05-07T09:42:24;205.40;;;192.93;;
2570;SDS011;1295;51.130;6.732;2023-05-07T09:44:50;118.83;;;109.20;;
2570;SDS011;1295;51.130;6.732;2023-05-07T09:47:18;121.80;;;111.60;;
2570;SDS011;1295;51.130;6.732;2023-05-07T09:49:41;70.83;;;49.33;;
2570;SDS011;1295;51.130;6.732;2023-05-07T09:52:07;58.17;;;16.10;;
2570;SDS011;1295;51.130;6.732;2023-05-07T09:54:33;67.20;;;33.20;;
2570;SDS011;1295;51.130;6.732;2023-05-07T09:56:59;54.27;;;13.90;;
2570;SDS011;1295;51.130;6.732;2023-05-07T09:59:24;73.50;;;39.13;;
2570;SDS011;1295;51.130;6.732;2023-05-07T10:01:50;57.63;;;18.00;;
2570;SDS011;1295;51.130;6.732;2023-05-07T10:04:15;57.80;;;21.33;;
2570;SDS011;1295;51.130;6.732;2023-05-07T10:06:41;95.53;;;86.77;;
2570;SDS011;1295;51.130;6.732;2023-05-07T10:09:08;68.27;;;29.97;;
2570;SDS011;1295;51.130;6.732;2023-05-07T10:11:33;163.03;;;150.67;;
2570;SDS011;1295;51.130;6.732;2023-05-07T10:13:59;63.93;;;32.37;;
2570;SDS011;1295;51.130;6.732;2023-05-07T10:16:25;60.40;;;18.30;;
2570;SDS011;1295;51.130;6.732;2023-05-07T10:18:50;63.13;;;27.80;;
2570;SDS011;1295;51.130;6.732;2023-05-07T10:21:17;71.87;;;55.53;;
2570;SDS011;1295;51.130;6.732;2023-05-07T10:23:45;70.57;;;49.80;;
2570;SDS011;1295;51.130;6.732;2023-05-07T10:26:10;54.87;;;12.40;;
2570;SDS011;1295;51.130;6.732;2023-05-07T10:28:38;88.47;;;77.07;;
2570;SDS011;1295;51.130;6.732;2023-05-07T10:31:08;70.93;;;51.57;;
2570;SDS011;1295;51.130;6.732;2023-05-07T10:33:38;56.67;;;10.47;;
2570;SDS011;1295;51.130;6.732;2023-05-07T10:36:03;54.10;;;8.40;;
2570;SDS011;1295;51.130;6.732;2023-05-07T10:38:29;67.20;;;32.47;;
2570;SDS011;1295;51.130;6.732;2023-05-07T10:40:55;60.83;;;24.57;;
2570;SDS011;1295;51.130;6.732;2023-05-07T10:43:21;66.27;;;41.73;;
2570;SDS011;1295;51.130;6.732;2023-05-07T10:48:24;59.17;;;22.63;;
2570;SDS011;1295;51.130;6.732;2023-05-07T10:50:50;57.10;;;13.97;;
2570;SDS011;1295;51.130;6.732;2023-05-07T10:55:49;137.83;;;127.40;;
2570;SDS011;1295;51.130;6.732;2023-05-07T10:58:24;60.57;;;13.97;;
2570;SDS011;1295;51.130;6.732;2023-05-07T11:00:56;60.90;;;29.00;;
2570;SDS011;1295;51.130;6.732;2023-05-07T11:03:21;61.50;;;31.73;;
2570;SDS011;1295;51.130;6.732;2023-05-07T11:05:47;64.43;;;37.90;;
2570;SDS011;1295;51.130;6.732;2023-05-07T11:08:12;65.00;;;38.40;;
2570;SDS011;1295;51.130;6.732;2023-05-07T11:13:14;58.80;;;24.07;;
2570;SDS011;1295;51.130;6.732;2023-05-07T11:15:40;54.83;;;13.10;;
2570;SDS011;1295;51.130;6.732;2023-05-07T11:18:05;54.70;;;13.07;;
2570;SDS011;1295;51.130;6.732;2023-05-07T11:25:48;52.83;;;10.67;;
2570;SDS011;1295;51.130;6.732;2023-05-07T11:28:14;59.40;;;28.13;;
2570;SDS011;1295;51.130;6.732;2023-05-07T11:30:41;54.60;;;9.63;;
2570;SDS011;1295;51.130;6.732;2023-05-07T11:33:05;53.80;;;8.13;;
2570;SDS011;1295;51.130;6.732;2023-05-07T11:35:31;52.50;;;6.03;;
2570;SDS011;1295;51.130;6.732;2023-05-07T11:37:59;51.30;;;8.00;;
2570;SDS011;1295;51.130;6.732;2023-05-07T11:40:23;53.77;;;9.03;;
2570;SDS011;1295;51.130;6.732;2023-05-07T11:42:49;52.37;;;7.00;;
2570;SDS011;1295;51.130;6.732;2023-05-07T11:45:22;58.23;;;22.77;;
2570;SDS011;1295;51.130;6.732;2023-05-07T11:47:41;55.07;;;16.20;;
2570;SDS011;1295;51.130;6.732;2023-05-07T11:50:07;52.17;;;5.00;;
2570;SDS011;1295;51.130;6.732;2023-05-07T11:52:34;51.90;;;6.00;;
2570;SDS011;1295;51.130;6.732;2023-05-07T11:55:01;54.17;;;7.03;;
2570;SDS011;1295;51.130;6.732;2023-05-07T11:57:26;54.73;;;6.93;;
2570;SDS011;1295;51.130;6.732;2023-05-07T11:59:56;58.70;;;7.23;;
2570;SDS011;1295;51.130;6.732;2023-05-07T12:02:22;54.57;;;10.17;;
2570;SDS011;1295;51.130;6.732;2023-05-07T12:04:48;53.60;;;15.17;;
2570;SDS011;1295;51.130;6.732;2023-05-07T12:07:14;61.07;;;19.20;;
2570;SDS011;1295;51.130;6.732;2023-05-07T12:09:41;55.83;;;18.87;;
2570;SDS011;1295;51.130;6.732;2023-05-07T12:12:06;53.40;;;12.33;;
2570;SDS011;1295;51.130;6.732;2023-05-07T12:14:32;57.10;;;12.23;;
2570;SDS011;1295;51.130;6.732;2023-05-07T12:16:59;51.40;;;6.60;;
2570;SDS011;1295;51.130;6.732;2023-05-07T12:19:24;60.73;;;31.67;;
2570;SDS011;1295;51.130;6.732;2023-05-07T12:21:50;61.50;;;30.87;;
2570;SDS011;1295;51.130;6.732;2023-05-07T12:24:16;58.33;;;26.93;;
2570;SDS011;1295;51.130;6.732;2023-05-07T12:26:41;49.97;;;3.83;;
2570;SDS011;1295;51.130;6.732;2023-05-07T12:29:07;55.43;;;13.80;;
2570;SDS011;1295;51.130;6.732;2023-05-07T12:31:33;57.40;;;20.83;;
2570;SDS011;1295;51.130;6.732;2023-05-07T12:33:59;56.47;;;20.43;;
2570;SDS011;1295;51.130;6.732;2023-05-07T12:36:25;59.57;;;25.43;;
2570;SDS011;1295;51.130;6.732;2023-05-07T12:38:51;58.53;;;20.23;;
2570;SDS011;1295;51.130;6.732;2023-05-07T12:41:17;57.30;;;20.97;;
2570;SDS011;1295;51.130;6.732;2023-05-07T12:43:44;55.50;;;9.77;;
2570;SDS011;1295;51.130;6.732;2023-05-07T12:46:09;63.27;;;43.83;;
2570;SDS011;1295;51.130;6.732;2023-05-07T12:48:36;50.57;;;4.40;;
2570;SDS011;1295;51.130;6.732;2023-05-07T12:51:02;52.20;;;8.80;;
2570;SDS011;1295;51.130;6.732;2023-05-07T12:53:28;54.07;;;5.70;;
2570;SDS011;1295;51.130;6.732;2023-05-07T12:55:54;54.57;;;10.60;;
2570;SDS011;1295;51.130;6.732;2023-05-07T12:58:20;54.10;;;6.80;;
2570;SDS011;1295;51.130;6.732;2023-05-07T13:00:47;54.67;;;5.37;;
2570;SDS011;1295;51.130;6.732;2023-05-07T13:03:12;51.47;;;4.40;;
2570;SDS011;1295;51.130;6.732;2023-05-07T13:05:37;55.80;;;5.40;;
2570;SDS011;1295;51.130;6.732;2023-05-07T13:08:03;53.07;;;5.53;;
2570;SDS011;1295;51.130;6.732;2023-05-07T13:10:30;52.90;;;5.30;;
2570;SDS011;1295;51.130;6.732;2023-05-07T13:13:11;52.43;;;5.20;;
2570;SDS011;1295;51.130;6.732;2023-05-07T13:15:37;53.80;;;5.80;;
2570;SDS011;1295;51.130;6.732;2023-05-07T13:18:02;52.10;;;5.23;;
2570;SDS011;1295;51.130;6.732;2023-05-07T13:20:28;53.80;;;6.27;;
2570;SDS011;1295;51.130;6.732;2023-05-07T13:22:54;52.73;;;4.10;;
2570;SDS011;1295;51.130;6.732;2023-05-07T13:25:20;53.77;;;5.40;;
2570;SDS011;1295;51.130;6.732;2023-05-07T13:27:46;53.40;;;5.93;;
2570;SDS011;1295;51.130;6.732;2023-05-07T13:30:11;55.73;;;5.93;;
2570;SDS011;1295;51.130;6.732;2023-05-07T13:32:38;55.20;;;5.53;;
2570;SDS011;1295;51.130;6.732;2023-05-07T13:35:04;52.40;;;4.30;;
2570;SDS011;1295;51.130;6.732;2023-05-07T13:37:30;56.07;;;5.83;;
2570;SDS011;1295;51.130;6.732;2023-05-07T13:39:57;55.10;;;5.20;;
2570;SDS011;1295;51.130;6.732;2023-05-07T13:42:23;57.23;;;4.90;;
2570;SDS011;1295;51.130;6.732;2023-05-07T13:44:49;53.50;;;5.43;;
2570;SDS011;1295;51.130;6.732;2023-05-07T13:47:15;52.47;;;4.33;;
2570;SDS011;1295;51.130;6.732;2023-05-07T13:49:41;53.83;;;6.53;;
2570;SDS011;1295;51.130;6.732;2023-05-07T13:52:07;57.07;;;13.70;;
2570;SDS011;1295;51.130;6.732;2023-05-07T13:54:33;60.10;;;24.83;;
2570;SDS011;1295;51.130;6.732;2023-05-07T13:56:58;64.30;;;22.93;;
2570;SDS011;1295;51.130;6.732;2023-05-07T13:59:24;61.03;;;28.80;;
2570;SDS011;1295;51.130;6.732;2023-05-07T14:01:51;67.27;;;46.53;;
2570;SDS011;1295;51.130;6.732;2023-05-07T14:04:16;72.53;;;57.13;;
2570;SDS011;1295;51.130;6.732;2023-05-07T14:06:42;66.30;;;36.53;;
2570;SDS011;1295;51.130;6.732;2023-05-07T14:09:08;58.73;;;11.57;;
2570;SDS011;1295;51.130;6.732;2023-05-07T14:11:34;59.40;;;8.30;;
2570;SDS011;1295;51.130;6.732;2023-05-07T14:14:00;56.93;;;9.30;;
2570;SDS011;1295;51.130;6.732;2023-05-07T14:16:25;54.80;;;7.13;;
2570;SDS011;1295;51.130;6.732;2023-05-07T14:18:51;68.17;;;39.57;;
2570;SDS011;1295;51.130;6.732;2023-05-07T14:21:17;70.33;;;36.37;;
2570;SDS011;1295;51.130;6.732;2023-05-07T14:23:43;57.63;;;14.50;;
2570;SDS011;1295;51.130;6.732;2023-05-07T14:26:09;73.10;;;10.27;;
2570;SDS011;1295;51.130;6.732;2023-05-07T14:28:35;58.60;;;15.17;;
2570;SDS011;1295;51.130;6.732;2023-05-07T14:31:01;57.20;;;5.80;;
2570;SDS011;1295;51.130;6.732;2023-05-07T14:33:27;56.27;;;9.07;;
2570;SDS011;1295;51.130;6.732;2023-05-07T14:35:52;55.10;;;6.20;;
2570;SDS011;1295;51.130;6.732;2023-05-07T14:38:18;55.60;;;6.10;;
2570;SDS011;1295;51.130;6.732;2023-05-07T14:40:44;54.73;;;5.70;;
2570;SDS011;1295;51.130;6.732;2023-05-07T14:43:09;56.17;;;7.20;;
2570;SDS011;1295;51.130;6.732;2023-05-07T14:45:36;56.40;;;6.43;;
2570;SDS011;1295;51.130;6.732;2023-05-07T14:48:02;57.70;;;6.33;;
2570;SDS011;1295;51.130;6.732;2023-05-07T14:50:28;56.37;;;5.73;;
2570;SDS011;1295;51.130;6.732;2023-05-07T14:52:53;55.17;;;5.07;;
2570;SDS011;1295;51.130;6.732;2023-05-07T14:55:19;53.70;;;5.90;;
2570;SDS011;1295;51.130;6.732;2023-05-07T14:57:46;57.23;;;8.60;;
2570;SDS011;1295;51.130;6.732;2023-05-07T15:00:12;66.57;;;6.13;;